createdAt,value
2019-04-29T00:01:11.995Z,100896.03
2019-04-29T00:03:42.561Z,100898.94
2019-04-29T00:06:13.116Z,100893.58
2019-04-29T00:08:43.891Z,100898.20
2019-04-29T00:11:14.545Z,100897.47
2019-04-29T00:13:45.552Z,100897.70
2019-04-29T00:16:30.080Z,100889.37
2019-04-29T00:19:02.332Z,100893.38
2019-04-29T00:21:32.945Z,100890.91
2019-04-29T00:24:04.377Z,100892.38
2019-04-29T00:26:35.374Z,100890.25
2019-04-29T00:29:05.995Z,100892.67
2019-04-29T00:31:36.592Z,100891.97
2019-04-29T00:34:07.253Z,100891.08
2019-04-29T00:36:45.308Z,100891.94
2019-04-29T00:39:23.361Z,100897.55
2019-04-29T00:42:07.964Z,100885.86
2019-04-29T00:44:38.582Z,100884.86
2019-04-29T00:47:09.200Z,100893.99
2019-04-29T00:49:39.808Z,100893.31
2019-04-29T00:52:10.565Z,100885.92
2019-04-29T00:54:47.185Z,100883.71
2019-04-29T00:57:18.156Z,100882.50
2019-04-29T00:59:50.702Z,100880.70
2019-04-29T01:02:21.308Z,100878.61
2019-04-29T01:04:51.917Z,100874.84
2019-04-29T01:07:22.673Z,100872.42
2019-04-29T01:09:53.279Z,100867.95
2019-04-29T01:12:23.935Z,100882.36
2019-04-29T01:14:54.578Z,100873.93
2019-04-29T01:17:25.845Z,100871.37
2019-04-29T01:19:56.397Z,100871.57
2019-04-29T01:22:27.514Z,100865.24
2019-04-29T01:24:58.072Z,100864.30
2019-04-29T01:27:30.309Z,100863.09
2019-04-29T01:30:02.354Z,100858.91
2019-04-29T01:32:33.064Z,100853.84
2019-04-29T01:35:05.435Z,100853.30
2019-04-29T01:37:37.651Z,100854.36
2019-04-29T01:40:10.387Z,100846.73
2019-04-29T01:42:42.642Z,100846.43
2019-04-29T01:45:14.399Z,100839.30
2019-04-29T01:47:45.372Z,100842.81
2019-04-29T01:50:15.927Z,100843.27
2019-04-29T01:52:46.532Z,100835.13
2019-04-29T01:55:18.202Z,100835.23
2019-04-29T01:57:48.844Z,100834.19
2019-04-29T02:00:19.747Z,100830.36
2019-04-29T02:02:50.348Z,100823.23
2019-04-29T02:05:20.956Z,100826.30
2019-04-29T02:07:51.553Z,100824.89
2019-04-29T02:10:23.898Z,100833.08
2019-04-29T02:12:54.657Z,100832.63
2019-04-29T02:15:26.008Z,100834.43
2019-04-29T02:17:56.570Z,100831.77
2019-04-29T02:20:27.215Z,100828.95
2019-04-29T02:23:02.458Z,100826.28
2019-04-29T02:25:50.164Z,100827.55
2019-04-29T02:28:20.804Z,100816.25
2019-04-29T02:30:52.147Z,100818.76
2019-04-29T02:33:22.763Z,100809.57
2019-04-29T02:35:54.337Z,100814.83
2019-04-29T02:38:41.714Z,100807.45
2019-04-29T02:41:17.104Z,100813.69
2019-04-29T02:43:49.944Z,100814.57
2019-04-29T02:46:20.488Z,100813.77
2019-04-29T02:48:51.244Z,100814.94
2019-04-29T02:51:39.806Z,100818.09
2019-04-29T02:54:10.409Z,100815.88
2019-04-29T02:56:42.630Z,100812.41
2019-04-29T02:59:15.097Z,100804.18
2019-04-29T03:02:02.778Z,100797.46
2019-04-29T03:04:37.991Z,100786.27
2019-04-29T03:07:08.605Z,100785.30
2019-04-29T03:09:45.576Z,100784.81
2019-04-29T03:12:16.237Z,100774.36
2019-04-29T03:14:46.840Z,100769.14
2019-04-29T03:17:18.951Z,100770.26
2019-04-29T03:20:09.747Z,100771.72
2019-04-29T03:22:42.348Z,100776.42
2019-04-29T03:25:13.330Z,100782.56
2019-04-29T03:27:44.962Z,100790.68
2019-04-29T03:30:15.713Z,100788.31
2019-04-29T03:32:46.369Z,100781.62
2019-04-29T03:35:16.879Z,100782.98
2019-04-29T03:37:47.484Z,100794.81
2019-04-29T03:40:18.050Z,100791.30
2019-04-29T03:42:48.672Z,100783.63
2019-04-29T03:45:19.280Z,100780.46
2019-04-29T03:47:49.881Z,100785.69
2019-04-29T03:50:20.613Z,100775.86
2019-04-29T03:52:51.167Z,100780.12
2019-04-29T03:55:38.168Z,100777.20
2019-04-29T03:57:54.046Z,100769.03
2019-04-29T04:00:24.665Z,100782.98
2019-04-29T04:03:06.144Z,100777.55
2019-04-29T04:05:39.307Z,100781.62
2019-04-29T04:08:20.889Z,100771.78
2019-04-29T04:10:51.559Z,100783.73
2019-04-29T04:13:22.129Z,100786.40
2019-04-29T04:15:52.708Z,100793.49
2019-04-29T04:18:27.777Z,100787.95
2019-04-29T04:20:58.502Z,100787.88
2019-04-29T04:23:29.112Z,100791.01
2019-04-29T04:25:59.825Z,100784.91
2019-04-29T04:28:30.453Z,100780.45
2019-04-29T04:31:01.165Z,100786.04
2019-04-29T04:33:31.978Z,100782.39
2019-04-29T04:36:02.613Z,100781.10
2019-04-29T04:38:33.212Z,100780.22
2019-04-29T04:41:05.743Z,100789.76
2019-04-29T04:43:36.513Z,100789.67
2019-04-29T04:46:07.145Z,100784.29
2019-04-29T04:48:38.348Z,100784.84
2019-04-29T04:51:09.597Z,100795.09
2019-04-29T04:53:40.374Z,100788.42
2019-04-29T04:56:11.081Z,100787.81
2019-04-29T04:58:42.046Z,100792.67
2019-04-29T05:01:13.326Z,100791.27
2019-04-29T05:03:44.464Z,100780.63
2019-04-29T05:06:15.134Z,100778.11
2019-04-29T05:08:46.758Z,100768.10
2019-04-29T05:11:17.390Z,100771.18
2019-04-29T05:13:48.242Z,100776.24
2019-04-29T05:16:18.913Z,100767.17
2019-04-29T05:18:49.589Z,100774.00
2019-04-29T05:21:20.135Z,100771.39
2019-04-29T05:23:51.872Z,100764.34
2019-04-29T05:26:22.475Z,100753.14
2019-04-29T05:28:53.589Z,100759.14
2019-04-29T05:31:24.148Z,100749.27
2019-04-29T05:33:54.926Z,100754.84
2019-04-29T05:36:27.134Z,100766.31
2019-04-29T05:39:14.374Z,100768.30
2019-04-29T05:41:45.040Z,100764.36
2019-04-29T05:44:29.205Z,100760.41
2019-04-29T05:47:07.675Z,100767.08
2019-04-29T05:49:42.897Z,100774.86
2019-04-29T05:52:15.079Z,100774.91
2019-04-29T05:54:46.013Z,100772.88
2019-04-29T05:57:20.354Z,100780.39
2019-04-29T05:59:49.526Z,100770.58
2019-04-29T06:02:24.073Z,100775.97
2019-04-29T06:04:53.948Z,100772.03
2019-04-29T06:07:26.962Z,100782.98
2019-04-29T06:09:57.657Z,100779.13
2019-04-29T06:12:29.229Z,100772.67
2019-04-29T06:14:59.847Z,100774.88
2019-04-29T06:17:30.635Z,100776.86
2019-04-29T06:20:01.240Z,100777.40
2019-04-29T06:22:31.919Z,100778.05
2019-04-29T06:25:02.584Z,100774.96
2019-04-29T06:27:33.418Z,100788.61
2019-04-29T06:30:08.832Z,100806.37
2019-04-29T06:32:39.478Z,100810.03
2019-04-29T06:35:13.834Z,100807.17
2019-04-29T06:37:42.783Z,100800.22
2019-04-29T06:40:13.536Z,100788.70
2019-04-29T06:42:44.198Z,100793.34
2019-04-29T06:45:15.287Z,100804.77
2019-04-29T06:47:45.920Z,100800.41
2019-04-29T06:50:16.828Z,100802.77
2019-04-29T06:52:47.385Z,100805.20
2019-04-29T06:55:18.003Z,100806.41
2019-04-29T06:57:48.634Z,100801.52
2019-04-29T07:00:22.229Z,100790.94
2019-04-29T07:02:51.852Z,100783.45
2019-04-29T07:05:23.631Z,100782.31
2019-04-29T07:07:54.250Z,100783.56
2019-04-29T07:10:27.034Z,100782.77
2019-04-29T07:12:57.147Z,100778.06
2019-04-29T07:15:28.730Z,100775.48
2019-04-29T07:17:59.389Z,100766.42
2019-04-29T07:20:32.544Z,100755.66
2019-04-29T07:23:02.573Z,100752.50
2019-04-29T07:25:34.223Z,100763.95
2019-04-29T07:28:04.904Z,100759.57
2019-04-29T07:30:39.207Z,100763.03
2019-04-29T07:33:07.909Z,100763.11
2019-04-29T07:35:42.859Z,100767.52
2019-04-29T07:38:12.302Z,100769.48
2019-04-29T07:40:43.706Z,100769.08
2019-04-29T07:43:15.181Z,100778.12
2019-04-29T07:45:53.403Z,100774.66
2019-04-29T07:48:24.905Z,100774.88
2019-04-29T07:50:59.462Z,100783.08
2019-04-29T07:53:36.745Z,100784.20
2019-04-29T07:56:01.714Z,100783.95
2019-04-29T07:58:32.386Z,100784.55
2019-04-29T08:01:02.993Z,100787.01
2019-04-29T08:03:33.558Z,100796.36
2019-04-29T08:06:04.294Z,100797.70
2019-04-29T08:08:35.280Z,100797.38
2019-04-29T08:11:05.849Z,100795.12
2019-04-29T08:13:37.856Z,100781.95
2019-04-29T08:16:08.451Z,100790.81
2019-04-29T08:18:39.329Z,100789.83
2019-04-29T08:21:10.177Z,100792.23
2019-04-29T08:23:42.443Z,100788.17
2019-04-29T08:26:13.117Z,100791.62
2019-04-29T08:28:44.352Z,100789.28
2019-04-29T08:31:16.577Z,100786.89
2019-04-29T08:33:48.535Z,100790.27
2019-04-29T08:36:20.658Z,100792.33
2019-04-29T08:38:51.237Z,100791.69
2019-04-29T08:41:28.498Z,100796.13
2019-04-29T08:44:16.274Z,100788.52
2019-04-29T08:46:58.478Z,100788.59
2019-04-29T08:49:29.062Z,100785.89
2019-04-29T08:52:01.639Z,100783.87
2019-04-29T08:54:37.005Z,100782.16
2019-04-29T08:57:06.109Z,100776.73
2019-04-29T08:59:36.683Z,100785.92
2019-04-29T09:02:10.182Z,100783.54
2019-04-29T09:04:52.806Z,100783.83
2019-04-29T09:07:13.209Z,100781.96
2019-04-29T09:09:44.230Z,100779.41
2019-04-29T09:12:14.814Z,100778.05
2019-04-29T09:14:45.391Z,100777.77
2019-04-29T09:17:20.622Z,100782.13
2019-04-29T09:19:48.238Z,100783.51
2019-04-29T09:22:20.428Z,100775.99
2019-04-29T09:25:09.347Z,100775.48
2019-04-29T09:27:45.027Z,100777.34
2019-04-29T09:30:16.247Z,100765.47
2019-04-29T09:32:46.826Z,100763.53
2019-04-29T09:35:17.623Z,100762.20
2019-04-29T09:37:48.282Z,100761.80
2019-04-29T09:40:23.802Z,100762.00
2019-04-29T09:42:57.096Z,100767.70
2019-04-29T09:45:45.703Z,100760.72
2019-04-29T09:48:16.293Z,100769.07
2019-04-29T09:50:46.887Z,100759.64
2019-04-29T09:53:17.493Z,100752.20
2019-04-29T09:55:48.074Z,100752.20
2019-04-29T09:58:18.705Z,100758.13
2019-04-29T10:00:50.947Z,100750.81
2019-04-29T10:03:26.064Z,100746.97
2019-04-29T10:05:59.236Z,100738.36
2019-04-29T10:08:30.092Z,100737.56
2019-04-29T10:11:00.678Z,100731.04
2019-04-29T10:13:33.297Z,100729.27
2019-04-29T10:16:20.789Z,100730.92
2019-04-29T10:18:53.043Z,100717.39
2019-04-29T10:21:24.471Z,100712.96
2019-04-29T10:23:55.156Z,100712.96
2019-04-29T10:26:25.782Z,100716.46
2019-04-29T10:28:58.006Z,100716.22
2019-04-29T10:31:28.978Z,100704.71
2019-04-29T10:33:59.546Z,100707.24
2019-04-29T10:36:33.122Z,100701.75
2019-04-29T10:39:06.855Z,100714.48
2019-04-29T10:41:40.316Z,100702.93
2019-04-29T10:44:15.904Z,100703.17
2019-04-29T10:46:50.832Z,100694.30
2019-04-29T10:49:23.049Z,100693.08
2019-04-29T10:51:53.727Z,100702.96
2019-04-29T10:54:28.035Z,100688.95
2019-04-29T10:56:59.109Z,100689.98
2019-04-29T10:59:36.039Z,100685.95
2019-04-29T11:02:23.144Z,100697.63
2019-04-29T11:04:56.351Z,100686.00
2019-04-29T11:07:33.081Z,100673.59
2019-04-29T11:10:09.284Z,100678.91
2019-04-29T11:12:42.198Z,100678.17
2019-04-29T11:15:13.948Z,100682.27
2019-04-29T11:17:46.442Z,100682.48
2019-04-29T11:20:21.074Z,100682.69
2019-04-29T11:23:00.551Z,100689.02
2019-04-29T11:25:40.468Z,100684.59
2019-04-29T11:28:12.212Z,100682.14
2019-04-29T11:30:43.377Z,100672.52
2019-04-29T11:33:18.639Z,100670.73
2019-04-29T11:35:50.884Z,100672.83
2019-04-29T11:38:21.540Z,100668.63
2019-04-29T11:40:52.470Z,100675.28
2019-04-29T11:43:23.955Z,100678.25
2019-04-29T11:45:55.411Z,100668.69
2019-04-29T11:48:25.984Z,100672.05
2019-04-29T11:50:58.203Z,100672.05
2019-04-29T11:53:28.822Z,100667.09
2019-04-29T11:55:59.415Z,100663.30
2019-04-29T11:58:40.546Z,100669.42
2019-04-29T12:01:38.495Z,100663.27
2019-04-29T12:04:15.522Z,100659.27
2019-04-29T12:06:46.194Z,100650.39
2019-04-29T12:09:16.887Z,100651.02
2019-04-29T12:11:47.706Z,100648.02
2019-04-29T12:14:28.799Z,100639.62
2019-04-29T12:17:17.716Z,100639.86
2019-04-29T12:20:06.415Z,100650.28
2019-04-29T12:22:47.640Z,100638.91
2019-04-29T12:25:09.776Z,100634.21
2019-04-29T12:27:40.386Z,100645.63
2019-04-29T12:30:12.986Z,100641.75
2019-04-29T12:33:01.330Z,100636.74
2019-04-29T12:35:51.228Z,100627.02
2019-04-29T12:38:38.816Z,100641.48
2019-04-29T12:41:00.084Z,100633.13
2019-04-29T12:43:41.663Z,100632.59
2019-04-29T12:46:13.891Z,100622.83
2019-04-29T12:48:44.467Z,100618.08
2019-04-29T12:51:17.048Z,100613.41
2019-04-29T12:53:47.296Z,100612.97
2019-04-29T12:56:19.536Z,100618.70
2019-04-29T12:58:50.664Z,100612.58
2019-04-29T13:01:50.226Z,100605.53
2019-04-29T13:04:21.643Z,100611.76
2019-04-29T13:07:03.106Z,100611.76
2019-04-29T13:12:22.644Z,100606.59
2019-04-29T13:15:03.110Z,100613.94
2019-04-29T13:17:47.176Z,100603.16
2019-04-29T13:20:17.770Z,100611.73
2019-04-29T13:22:48.347Z,100604.40
2019-04-29T13:25:19.746Z,100606.98
2019-04-29T13:27:51.419Z,100604.37
2019-04-29T13:30:22.233Z,100612.46
2019-04-29T13:32:52.962Z,100608.30
2019-04-29T13:35:23.739Z,100608.83
2019-04-29T13:37:55.916Z,100607.14
2019-04-29T13:40:26.544Z,100602.45
2019-04-29T13:42:57.143Z,100599.69
2019-04-29T13:45:41.663Z,100599.77
2019-04-29T13:48:16.599Z,100598.31
2019-04-29T13:50:48.832Z,100596.98
2019-04-29T13:53:19.560Z,100589.37
2019-04-29T13:56:10.005Z,100588.67
2019-04-29T13:58:27.104Z,100586.52
2019-04-29T14:01:22.092Z,100585.77
2019-04-29T14:03:49.896Z,100580.33
2019-04-29T14:06:20.491Z,100579.78
2019-04-29T14:08:54.030Z,100570.13
2019-04-29T14:11:25.969Z,100579.61
2019-04-29T14:13:55.707Z,100575.08
2019-04-29T14:16:26.291Z,100573.44
2019-04-29T14:18:56.918Z,100575.23
2019-04-29T14:21:30.130Z,100575.05
2019-04-29T14:24:00.268Z,100566.22
2019-04-29T14:26:32.286Z,100571.22
2019-04-29T14:29:03.939Z,100570.67
2019-04-29T14:31:35.650Z,100574.78
2019-04-29T14:34:10.839Z,100568.14
2019-04-29T14:36:41.612Z,100567.27
2019-04-29T14:39:13.036Z,100576.62
2019-04-29T14:41:46.455Z,100569.61
2019-04-29T14:44:31.471Z,100564.33
2019-04-29T14:47:17.621Z,100571.86
2019-04-29T14:49:55.194Z,100573.17
2019-04-29T14:52:25.835Z,100573.23
2019-04-29T14:54:56.560Z,100560.62
2019-04-29T14:57:27.997Z,100560.17
2019-04-29T14:59:58.901Z,100567.23
2019-04-29T15:02:29.942Z,100562.49
2019-04-29T15:05:00.806Z,100562.49
2019-04-29T15:07:33.213Z,100551.69
2019-04-29T15:10:08.774Z,100554.82
2019-04-29T15:12:51.705Z,100557.58
2019-04-29T15:15:34.126Z,100549.98
2019-04-29T15:18:15.889Z,100551.91
2019-04-29T15:20:42.150Z,100551.59
2019-04-29T15:23:12.740Z,100557.93
2019-04-29T15:25:43.447Z,100556.22
2019-04-29T15:28:14.212Z,100550.40
2019-04-29T15:30:45.333Z,100548.94
2019-04-29T15:33:16.533Z,100548.94
2019-04-29T15:35:48.811Z,100540.81
2019-04-29T15:38:19.475Z,100548.83
2019-04-29T15:40:50.121Z,100548.43
2019-04-29T15:43:24.475Z,100551.50
2019-04-29T15:45:53.518Z,100556.91
2019-04-29T15:48:24.315Z,100556.91
2019-04-29T15:50:55.523Z,100542.70
2019-04-29T15:53:26.945Z,100547.31
2019-04-29T15:56:06.642Z,100546.83
2019-04-29T15:58:31.330Z,100544.55
2019-04-29T16:01:13.046Z,100544.55
2019-04-29T16:03:37.611Z,100549.52
2019-04-29T16:06:21.234Z,100548.67
2019-04-29T16:08:47.527Z,100542.84
2019-04-29T16:11:36.286Z,100542.84
2019-04-29T16:14:10.028Z,100545.20
2019-04-29T16:16:42.225Z,100545.41
2019-04-29T16:19:12.912Z,100551.23
2019-04-29T16:21:43.953Z,100551.45
2019-04-29T16:24:26.445Z,100545.54
2019-04-29T16:26:53.299Z,100545.86
2019-04-29T16:29:20.253Z,100545.77
2019-04-29T16:31:54.920Z,100545.14
2019-04-29T16:34:23.822Z,100548.23
2019-04-29T16:36:54.436Z,100548.05
2019-04-29T16:39:25.285Z,100548.45
2019-04-29T16:42:12.737Z,100546.66
2019-04-29T16:44:45.014Z,100551.77
2019-04-29T16:47:17.325Z,100548.91
2019-04-29T16:49:48.894Z,100554.84
2019-04-29T16:52:19.564Z,100547.41
2019-04-29T16:54:50.709Z,100544.35
2019-04-29T16:57:21.619Z,100552.63
2019-04-29T16:59:52.185Z,100555.28
2019-04-29T17:02:24.111Z,100554.34
2019-04-29T17:04:54.743Z,100557.53
2019-04-29T17:07:25.304Z,100561.67
2019-04-29T17:10:00.724Z,100557.77
2019-04-29T17:12:36.221Z,100571.84
2019-04-29T17:15:23.042Z,100571.12
2019-04-29T17:17:39.504Z,100572.30
2019-04-29T17:20:10.413Z,100571.25
2019-04-29T17:22:43.365Z,100575.59
2019-04-29T17:25:16.641Z,100581.02
2019-04-29T17:28:11.425Z,100597.52
2019-04-29T17:30:46.381Z,100587.06
2019-04-29T17:33:28.025Z,100597.21
2019-04-29T17:35:54.449Z,100598.98
2019-04-29T17:38:25.034Z,100600.66
2019-04-29T17:40:56.405Z,100602.34
2019-04-29T17:43:38.277Z,100609.59
2019-04-29T17:46:14.352Z,100608.95
2019-04-29T17:48:53.216Z,100616.84
2019-04-29T17:51:22.615Z,100614.41
2019-04-29T17:53:54.971Z,100626.33
2019-04-29T17:56:45.132Z,100625.45
2019-04-29T17:59:29.436Z,100628.88
2019-04-29T18:02:20.755Z,100635.91
2019-04-29T18:04:59.480Z,100644.54
2019-04-29T18:07:40.451Z,100645.44
2019-04-29T18:10:24.494Z,100645.72
2019-04-29T18:12:51.253Z,100648.42
2019-04-29T18:15:27.021Z,100649.03
2019-04-29T18:18:00.306Z,100654.47
2019-04-29T18:20:33.462Z,100657.61
2019-04-29T18:23:05.880Z,100662.20
2019-04-29T18:25:56.154Z,100662.48
2019-04-29T18:28:27.013Z,100671.10
2019-04-29T18:30:57.922Z,100668.91
2019-04-29T18:33:30.352Z,100668.53
2019-04-29T18:36:04.298Z,100673.75
2019-04-29T18:38:35.069Z,100679.05
2019-04-29T18:41:05.707Z,100677.81
2019-04-29T18:43:36.274Z,100683.88
2019-04-29T18:46:12.658Z,100692.88
2019-04-29T18:48:39.275Z,100693.72
2019-04-29T18:51:09.872Z,100691.17
2019-04-29T18:53:40.547Z,100697.89
2019-04-29T18:56:12.181Z,100697.50
2019-04-29T18:58:46.882Z,100697.95
2019-04-29T19:01:16.681Z,100699.70
2019-04-29T19:03:52.742Z,100706.15
2019-04-29T19:06:23.379Z,100707.91
2019-04-29T19:08:56.589Z,100712.78
2019-04-29T19:11:32.465Z,100709.44
2019-04-29T19:13:59.716Z,100719.65
2019-04-29T19:16:30.440Z,100725.23
2019-04-29T19:19:01.830Z,100705.23
2019-04-29T19:21:33.486Z,100719.95
2019-04-29T19:24:04.860Z,100728.91
2019-04-29T19:26:36.393Z,100726.70
2019-04-29T19:29:09.402Z,100724.58
2019-04-29T19:31:46.810Z,100731.84
2019-04-29T19:34:14.616Z,100727.08
2019-04-29T19:36:45.126Z,100730.91
2019-04-29T19:39:17.056Z,100735.09
2019-04-29T19:41:51.555Z,100727.27
2019-04-29T19:44:26.561Z,100725.42
2019-04-29T19:46:58.960Z,100722.22
2019-04-29T19:49:29.176Z,100732.58
2019-04-29T19:52:00.130Z,100733.49
2019-04-29T19:54:31.331Z,100737.38
2019-04-29T19:57:07.479Z,100734.55
2019-04-29T19:59:38.158Z,100738.20
2019-04-29T20:02:11.407Z,100732.11
2019-04-29T20:04:53.717Z,100741.34
2019-04-29T20:07:27.243Z,100730.64
2019-04-29T20:10:03.682Z,100739.75
2019-04-29T20:12:31.930Z,100749.86
2019-04-29T20:15:07.705Z,100743.73
2019-04-29T20:17:59.840Z,100741.86
2019-04-29T20:20:38.610Z,100751.78
2019-04-29T20:23:10.120Z,100752.20
2019-04-29T20:25:41.364Z,100747.08
2019-04-29T20:28:17.587Z,100737.59
2019-04-29T20:30:45.839Z,100746.41
2019-04-29T20:33:20.032Z,100744.63
2019-04-29T20:35:50.956Z,100745.35
2019-04-29T20:38:21.637Z,100750.34
2019-04-29T20:40:52.714Z,100750.38
2019-04-29T20:43:25.963Z,100752.08
2019-04-29T20:45:58.153Z,100757.20
2019-04-29T20:48:31.364Z,100765.77
2019-04-29T20:51:10.813Z,100779.73
2019-04-29T20:53:41.276Z,100790.59
2019-04-29T20:56:16.981Z,100795.16
2019-04-29T20:58:46.721Z,100783.82
2019-04-29T21:01:18.589Z,100777.94
2019-04-29T21:03:53.600Z,100804.70
2019-04-29T21:06:21.553Z,100799.80
2019-04-29T21:08:52.291Z,100799.36
2019-04-29T21:11:25.787Z,100794.27
2019-04-29T21:14:15.784Z,100789.17
2019-04-29T21:16:51.117Z,100806.90
2019-04-29T21:19:21.698Z,100818.48
2019-04-29T21:21:52.274Z,100813.37
2019-04-29T21:24:22.831Z,100808.64
2019-04-29T21:26:55.035Z,100812.06
2019-04-29T21:29:25.696Z,100828.25
2019-04-29T21:32:01.435Z,100819.44
2019-04-29T21:34:34.602Z,100803.11
2019-04-29T21:37:08.552Z,100806.66
2019-04-29T21:39:38.063Z,100818.25
2019-04-29T21:42:10.283Z,100810.77
2019-04-29T21:44:40.864Z,100810.77
2019-04-29T21:47:11.698Z,100817.92
2019-04-29T21:49:45.642Z,100817.58
2019-04-29T21:52:19.514Z,100817.41
2019-04-29T21:54:49.179Z,100808.05
2019-04-29T21:57:23.722Z,100816.22
2019-04-29T21:59:53.442Z,100816.91
2019-04-29T22:02:26.096Z,100818.43
2019-04-29T22:04:56.323Z,100819.28
2019-04-29T22:07:26.911Z,100813.31
2019-04-29T22:09:57.476Z,100809.56
2019-04-29T22:12:28.046Z,100822.66
2019-04-29T22:14:59.495Z,100826.56
2019-04-29T22:17:32.810Z,100827.08
2019-04-29T22:20:07.431Z,100818.39
2019-04-29T22:22:37.715Z,100814.80
2019-04-29T22:25:10.140Z,100817.53
2019-04-29T22:27:41.228Z,100815.49
2019-04-29T22:30:16.857Z,100818.55
2019-04-29T22:32:47.158Z,100819.27
2019-04-29T22:35:18.024Z,100817.90
2019-04-29T22:37:48.606Z,100824.98
2019-04-29T22:40:19.156Z,100816.12
2019-04-29T22:43:04.834Z,100814.91
2019-04-29T22:45:33.855Z,100808.81
2019-04-29T22:48:14.325Z,100816.91
2019-04-29T22:50:38.237Z,100806.45
2019-04-29T22:53:08.820Z,100807.13
2019-04-29T22:55:39.684Z,100809.67
2019-04-29T23:00:40.442Z,100810.68
2019-04-29T23:03:11.366Z,100809.86
2019-04-29T23:05:41.935Z,100804.17
2019-04-29T23:08:12.609Z,100798.39
2019-04-29T23:10:45.635Z,100804.59
2019-04-29T23:13:16.510Z,100806.27
2019-04-29T23:15:47.221Z,100809.36
2019-04-29T23:18:24.619Z,100803.23
2019-04-29T23:21:05.101Z,100797.11
2019-04-29T23:23:45.276Z,100804.08
2019-04-29T23:26:16.943Z,100800.53
2019-04-29T23:28:47.812Z,100802.45
2019-04-29T23:31:18.491Z,100792.10
2019-04-29T23:33:53.178Z,100795.88
2019-04-29T23:36:21.357Z,100795.89
2019-04-29T23:38:51.932Z,100794.19
2019-04-29T23:41:27.683Z,100787.28
2019-04-29T23:43:59.877Z,100786.00
2019-04-29T23:46:29.742Z,100785.03
2019-04-29T23:49:03.154Z,100784.72
2019-04-29T23:51:34.447Z,100779.45
2019-04-29T23:54:07.812Z,100781.91
2019-04-29T23:56:48.120Z,100785.18
2019-04-29T23:59:18.838Z,100780.61
